Flight Track Log - Related Links

Times and Time Zones

All times are in EDT time to prevent confusion due to time zone crossing. See the AAL832 flight status page for this flight to view local times or setup timezone preferences in your user account.

Time Position Orientation Groundspeed Altitude Reporting Facility
EDT Latitude Longitude Course Direction KTS MPH feet Rate Location/Type
Sat 12:52:15 PM 33.9333 -118.4564 59° Northeast 192 221 1,800  Level Los Angeles Center
Sat 12:53:17 PM 33.9103 -118.5336 250° West 237 273 3,300 2,129 Climbing Los Angeles Center
Sat 12:54:00 PM 34.1397 -118.0539 59° Northeast  Level FlightAware Approximate
Sat 12:54:19 PM 33.8636 -118.5964 228° Southwest 267 307 6,200  Level Los Angeles Center
Sat 12:55:00 PM 34.2085 -117.9164 59° Northeast  Level FlightAware Approximate
Sat 12:55:21 PM 33.8158 -118.5397 135° Southeast 283 326 8,800  Level Los Angeles Center
Sat 12:56:00 PM 34.2809 -117.7822 46° Northeast  Level FlightAware Approximate
Sat 12:56:23 PM 33.8833 -118.4669 42° Northeast 319 367 10,700  Level Los Angeles Center
Sat 12:57:00 PM 34.3632 -117.6570 59° Northeast  Level FlightAware Approximate
Sat 12:57:25 PM 33.9528 -118.3997 39° Northeast 350 403 12,200  Level Los Angeles Center
Sat 12:58:27 PM 34.0117 -118.2947 56° Northeast 373 429 14,100 1,805 Climbing Los Angeles Center
Sat 12:59:28 PM 34.0611 -118.2058 56° Northeast 391 450 15,900 2,323 Climbing Los Angeles Center
Sat 01:00:31 PM 34.1525 -118.0461 55° Northeast 412 474 18,900 2,352 Climbing Los Angeles Center
Sat 01:01:33 PM 34.2203 -117.9247 56° Northeast 431 496 20,800 1,839 Climbing Los Angeles Center
Sat 01:02:35 PM 34.2903 -117.8000 56° Northeast 444 511 22,700 1,694 Climbing Los Angeles Center
Sat 01:03:37 PM 34.3617 -117.6728 56° Northeast 456 525 24,300 1,476 Climbing Los Angeles Center
Sat 01:04:41 PM 34.4386 -117.5319 56° Northeast 473 544 25,800 1,306 Climbing Los Angeles Center
Sat 01:05:41 PM 34.5144 -117.3958 56° Northeast 489 563 27,000 1,230 Climbing Los Angeles Center
Sat 01:06:43 PM 34.6008 -117.2650 51° Northeast 502 578 28,300 1,306 Climbing Los Angeles Center
Sat 01:07:45 PM 34.7125 -117.1103 49° Northeast 511 588 29,700 1,403 Climbing Los Angeles Center
Sat 01:08:47 PM 34.8064 -116.9800 49° Northeast 515 593 31,200 1,355 Climbing Los Angeles Center
Sat 01:09:49 PM 34.8997 -116.8503 49° Northeast 513 590 32,500 1,113 Climbing Los Angeles Center
Sat 01:10:51 PM 34.9922 -116.7189 49° Northeast 514 592 33,500 968 Climbing Los Angeles Center
Sat 01:11:53 PM 35.0867 -116.5883 49° Northeast 516 594 34,500 968 Climbing Los Angeles Center
Sat 01:12:55 PM 35.1794 -116.4547 50° Northeast 516 594 35,500 871 Climbing Los Angeles Center
Sat 01:13:57 PM 35.2908 -116.2969 49° Northeast 514 592 36,300 726 Climbing Los Angeles Center
Sat 01:14:59 PM 35.3850 -116.1603 50° Northeast 522 601 37,000 339 Climbing Los Angeles Center
Sat 01:16:01 PM 35.4806 -116.0253 49° Northeast 525 604 37,000  Level Los Angeles Center
Sat 01:17:15 PM 35.5836 -115.8753 50° Northeast 524 603 37,000  Level Los Angeles Center
Sat 01:18:18 PM 35.6972 -115.7203 48° Northeast 513 590 37,000  Level Los Angeles Center
Sat 01:19:20 PM 35.7900 -115.5836 50° Northeast 517 595 37,000  Level Los Angeles Center
Sat 01:20:34 PM 35.9197 -115.3953 50° Northeast 517 595 37,000  Level Los Angeles Center
Sat 01:21:36 PM 36.0103 -115.2611 50° Northeast 515 593 37,000  Level Los Angeles Center
Sat 01:22:39 PM 36.1014 -115.1264 50° Northeast 515 593 37,000  Level Los Angeles Center
Sat 01:23:41 PM 36.2014 -115.0050 44° Northeast 511 588 37,000  Level Los Angeles Center
Sat 01:24:43 PM 36.3003 -114.8797 46° Northeast 512 589 37,000  Level Los Angeles Center
Sat 01:25:45 PM 36.4169 -114.7294 46° Northeast 508 585 37,000  Level Los Angeles Center
Sat 01:26:47 PM 36.5144 -114.6011 47° Northeast 511 588 37,000  Level Los Angeles Center
Sat 01:27:49 PM 36.6114 -114.4742 46° Northeast 509 586 37,000  Level Los Angeles Center
Sat 01:28:51 PM 36.7089 -114.3464 46° Northeast 509 586 37,000  Level Los Angeles Center
Sat 01:29:53 PM 36.7947 -114.2056 53° Northeast 512 589 37,000  Level Los Angeles Center
Sat 01:30:55 PM 36.8689 -114.0533 59° Northeast 514 592 37,000  Level Los Angeles Center
Sat 01:31:57 PM 36.9514 -113.8811 59° Northeast 514 592 37,000  Level Los Angeles Center
Sat 01:32:59 PM 37.0239 -113.7267 60° Northeast 516 594 37,000  Level Los Angeles Center
Sat 01:34:02 PM 37.0972 -113.5728 59° Northeast 516 594 37,000  Level Los Angeles Center
Sat 01:35:04 PM 37.1697 -113.4200 59° Northeast 514 592 37,000  Level Los Angeles Center
Sat 01:36:06 PM 37.2581 -113.2358 59° Northeast 514 592 37,000  Level Los Angeles Center
Sat 01:37:08 PM 37.3297 -113.0811 60° Northeast 516 594 37,000  Level Los Angeles Center
Sat 01:38:10 PM 37.4006 -112.9275 60° Northeast 514 592 37,000  Level Los Angeles Center
Sat 01:38:57 PM 37.4553 -112.8056 60° Northeast 516 594 37,000  Level Salt Lake Center
Sat 01:39:59 PM 37.5278 -112.6536 59° Northeast 520 598 37,000  Level Salt Lake Center
Sat 01:40:14 PM 37.5567 -112.5928 59° Northeast 517 595 37,000  Level Los Angeles Center
Sat 01:41:01 PM 37.6139 -112.4694 60° Northeast 516 594 37,000  Level Salt Lake Center
Sat 01:42:03 PM 37.6858 -112.3136 60° Northeast 517 595 37,000  Level Salt Lake Center
Sat 01:43:05 PM 37.7694 -112.1653 54° Northeast 521 600 37,000  Level Salt Lake Center
Sat 01:44:07 PM 37.8558 -112.0178 53° Northeast 524 603 37,000  Level Salt Lake Center
Sat 01:45:15 PM 37.9578 -111.8381 54° Northeast 526 605 37,000  Level Denver Center
Sat 01:46:11 PM 38.0436 -111.6903 54° Northeast 524 603 37,000  Level Salt Lake Center
Sat 01:47:13 PM 38.1283 -111.5414 54° Northeast 522 601 37,000  Level Salt Lake Center
Sat 01:48:15 PM 38.2131 -111.3928 54° Northeast 521 600 37,000  Level Salt Lake Center
Sat 01:49:17 PM 38.2972 -111.2433 54° Northeast 521 600 37,000  Level Salt Lake Center
Sat 01:50:19 PM 38.3808 -111.0925 55° Northeast 521 600 37,000  Level Salt Lake Center
Sat 01:51:21 PM 38.4733 -110.9261 55° Northeast 522 601 37,000  Level Salt Lake Center
Sat 01:52:23 PM 38.5536 -110.7819 55° Northeast 520 598 37,000  Level Salt Lake Center
Sat 01:53:25 PM 38.6475 -110.6147 54° Northeast 519 597 37,000  Level Salt Lake Center
Sat 01:54:27 PM 38.7264 -110.4678 55° Northeast 522 601 37,000  Level Salt Lake Center
Sat 01:55:29 PM 38.8208 -110.2981 54° Northeast 523 602 37,000  Level Salt Lake Center
Sat 01:56:31 PM 38.9006 -110.1517 55° Northeast 524 603 37,000  Level Salt Lake Center
Sat 01:57:33 PM 38.9931 -109.9803 55° Northeast 523 602 37,000  Level Salt Lake Center
Sat 01:58:35 PM 39.0711 -109.8333 56° Northeast 519 597 37,000  Level Salt Lake Center
Sat 01:59:06 PM 39.1097 -109.7575 57° Northeast 522 601 37,000  Level Denver Center
Sat 01:59:37 PM 39.1633 -109.6622 54° Northeast 521 600 37,000  Level Salt Lake Center
Sat 02:00:39 PM 39.2422 -109.5142 55° Northeast 521 600 37,000  Level Salt Lake Center
Sat 02:01:41 PM 39.3331 -109.3417 56° Northeast 521 600 37,000  Level Salt Lake Center
Sat 02:02:12 PM 39.3719 -109.2661 56° Northeast 521 600 37,000  Level Denver Center
Sat 02:03:14 PM 39.4494 -109.1189 56° Northeast 517 595 37,000  Level Denver Center
Sat 02:03:45 PM 39.5017 -109.0214 55° Northeast 519 597 37,000  Level Salt Lake Center
Sat 02:04:47 PM 39.5783 -108.8747 56° Northeast 517 595 37,000  Level Salt Lake Center
Sat 02:05:18 PM 39.6214 -108.7919 56° Northeast 520 598 37,000  Level Denver Center
Sat 02:06:20 PM 39.7042 -108.6347 56° Northeast 526 605 37,000  Level Denver Center
Sat 02:07:22 PM 39.7928 -108.4622 56° Northeast 516 594 37,000  Level Denver Center
Sat 02:08:24 PM 39.8719 -108.3117 56° Northeast 527 606 37,000  Level Denver Center
Sat 02:09:26 PM 39.9478 -108.1633 56° Northeast 515 593 37,000  Level Denver Center
Sat 02:10:28 PM 40.0347 -107.9889 57° Northeast 514 592 37,000  Level Denver Center
Sat 02:11:29 PM 40.1275 -107.8583 47° Northeast 516 594 37,000  Level Denver Center
Sat 02:12:31 PM 40.2522 -107.7311 38° Northeast 511 588 37,000  Level Denver Center
Sat 02:13:33 PM 40.3581 -107.6186 39° Northeast 511 588 37,000  Level Denver Center
Sat 02:14:35 PM 40.4814 -107.4889 39° Northeast 509 586 37,000  Level Denver Center
Sat 02:15:37 PM 40.5875 -107.3764 39° Northeast 510 587 37,000  Level Denver Center
Sat 02:16:51 PM 40.7106 -107.2444 39° Northeast 511 588 37,000  Level Denver Center
Sat 02:17:53 PM 40.8372 -107.1103 39° Northeast 519 597 37,000  Level Denver Center
Sat 02:18:55 PM 40.9614 -106.9764 39° Northeast 518 596 37,000  Level Denver Center
Sat 02:19:57 PM 41.0667 -106.8622 39° Northeast 515 593 37,000  Level Denver Center
Sat 02:20:59 PM 41.1925 -106.7267 39° Northeast 520 598 37,000  Level Denver Center
Sat 02:22:01 PM 41.2978 -106.6103 40° Northeast 518 596 37,000  Level Denver Center
Sat 02:23:02 PM 41.4211 -106.4761 39° Northeast 513 590 37,000  Level Denver Center
Sat 02:24:04 PM 41.5297 -106.3639 38° Northeast 512 589 37,000  Level Denver Center
Sat 02:25:06 PM 41.6511 -106.2225 41° Northeast 518 596 37,000  Level Denver Center
Sat 02:26:08 PM 41.7558 -106.1053 40° Northeast 514 592 37,000  Level Denver Center
Sat 02:27:10 PM 41.8617 -105.9850 40° Northeast 517 595 37,000  Level Denver Center
Sat 02:28:23 PM 41.9761 -105.8317 45° Northeast 521 600 37,000  Level Denver Center
Sat 02:29:26 PM 42.1056 -105.6556 45° Northeast 517 595 37,000  Level Denver Center
Sat 02:30:28 PM 42.2033 -105.5236 45° Northeast 519 597 37,000  Level Denver Center
Sat 02:31:29 PM 42.3000 -105.3906 45° Northeast 519 597 37,000  Level Denver Center
Sat 02:32:31 PM 42.4150 -105.2342 45° Northeast 523 602 37,000  Level Denver Center
Sat 02:33:33 PM 42.5119 -105.1011 45° Northeast 517 595 37,000  Level Denver Center
Sat 02:34:35 PM 42.6261 -104.9444 45° Northeast 517 595 37,000  Level Denver Center
Sat 02:35:37 PM 42.7253 -104.8086 45° Northeast 521 600 37,000  Level Denver Center
Sat 02:36:39 PM 42.8233 -104.6708 46° Northeast 521 600 37,000  Level Denver Center
Sat 02:37:41 PM 42.9383 -104.5100 46° Northeast 524 603 37,000  Level Denver Center
Sat 02:38:43 PM 43.0356 -104.3708 46° Northeast 525 604 37,000  Level Denver Center
Sat 02:39:45 PM 43.1492 -104.2103 46° Northeast 525 604 37,000  Level Denver Center
Sat 02:40:47 PM 43.2461 -104.0719 46° Northeast 525 604 37,000  Level Denver Center
Sat 02:41:48 PM 43.3586 -103.9103 46° Northeast 523 602 37,000  Level Denver Center
Sat 02:42:50 PM 43.4542 -103.7725 46° Northeast 522 601 37,000  Level Denver Center
Sat 02:43:52 PM 43.5675 -103.6114 46° Northeast 523 602 37,000  Level Denver Center
Sat 02:44:54 PM 43.6628 -103.4739 46° Northeast 519 597 37,000  Level Denver Center
Sat 02:45:56 PM 43.7608 -103.3344 46° Northeast 524 603 37,000  Level Denver Center
Sat 02:46:58 PM 43.8711 -103.1708 47° Northeast 522 601 37,000  Level Denver Center
Sat 02:48:00 PM 43.9644 -103.0283 48° Northeast 521 600 37,000  Level Denver Center
Sat 02:49:02 PM 44.0419 -102.8278 62° Northeast 524 603 37,000  Level Denver Center
Sat 02:50:04 PM 44.1033 -102.6297 67° East 531 611 37,000  Level Denver Center
Sat 02:51:05 PM 44.1625 -102.4442 66° East 526 605 37,000  Level Denver Center
Sat 02:52:07 PM 44.1447 -102.2394 97° East 534 615 37,000  Level Denver Center
Sat 02:53:09 PM 44.1297 -102.0414 96° East 520 598 37,000  Level Denver Center
Sat 02:54:11 PM 44.1125 -101.8439 97° East 517 595 37,000  Level Denver Center
Sat 02:55:13 PM 44.0942 -101.6453 97° East 519 597 37,000  Level Denver Center
Sat 02:56:14 PM 44.0825 -101.4528 95° East 511 588 37,000  Level Denver Center
Sat 02:57:14 PM 44.0636 -101.2556 98° East 514 592 37,000  Level Minneapolis Center
Sat 02:58:16 PM 44.0433 -101.0225 97° East 512 589 37,000  Level Minneapolis Center
Sat 02:59:18 PM 44.0286 -100.8314 96° East 507 583 37,000  Level Minneapolis Center
Sat 03:00:22 PM 44.0103 -100.6353 97° East 511 588 37,000  Level Minneapolis Center
Sat 03:01:24 PM 43.9917 -100.4389 97° East 514 592 37,000  Level Minneapolis Center
Sat 03:02:38 PM 43.9731 -100.2422 97° East 516 594 37,000  Level Minneapolis Center
Sat 03:03:40 PM 43.9469 -99.9697 97° East 512 589 37,000  Level Minneapolis Center
Sat 03:04:42 PM 43.9278 -99.7761 98° East 511 588 37,000  Level Minneapolis Center
Sat 03:05:43 PM 43.9078 -99.5800 98° East 512 589 37,000  Level Minneapolis Center
Sat 03:06:45 PM 43.8897 -99.3867 97° East 512 589 37,000  Level Minneapolis Center
Sat 03:07:47 PM 43.8692 -99.1939 98° East 509 586 37,000  Level Minneapolis Center
Sat 03:08:49 PM 43.8486 -99.0061 99° East 504 580 37,000  Level Minneapolis Center
Sat 03:09:50 PM 43.8242 -98.7803 98° East 499 574 37,000  Level Minneapolis Center
Sat 03:10:52 PM 43.8031 -98.5922 99° East 497 572 37,000  Level Minneapolis Center
Sat 03:11:54 PM 43.7817 -98.4022 99° East 501 577 37,000  Level Minneapolis Center
Sat 03:12:55 PM 43.7614 -98.2111 98° East 503 579 37,000  Level Minneapolis Center
Sat 03:13:57 PM 43.7389 -98.0208 99° East 504 580 37,000  Level Minneapolis Center
Sat 03:15:11 PM 43.7167 -97.8306 99° East 503 579 37,000  Level Minneapolis Center
Sat 03:16:13 PM 43.6858 -97.5667 99° East 500 575 37,000  Level Minneapolis Center
Sat 03:17:14 PM 43.6619 -97.3772 100° East 502 578 37,000  Level Minneapolis Center
Sat 03:18:16 PM 43.6383 -97.1883 100° East 502 578 37,000  Level Minneapolis Center
Sat 03:19:17 PM 43.6156 -96.9986 99° East 503 579 37,000  Level Minneapolis Center
Sat 03:20:19 PM 43.5917 -96.8119 100° East 501 577 37,000  Level Minneapolis Center
Sat 03:21:21 PM 43.5692 -96.6267 99° East 496 571 37,000  Level Minneapolis Center
Sat 03:22:22 PM 43.5436 -96.4403 101° East 498 573 37,000  Level Minneapolis Center
Sat 03:23:24 PM 43.5153 -96.2172 100° East 498 573 37,000  Level Minneapolis Center
Sat 03:24:25 PM 43.4911 -96.0347 100° East 491 565 37,000  Level Minneapolis Center
Sat 03:25:27 PM 43.4661 -95.8519 101° East 489 563 37,000  Level Minneapolis Center
Sat 03:26:28 PM 43.4417 -95.6700 100° East 487 560 37,000  Level Minneapolis Center
Sat 03:27:30 PM 43.4167 -95.4919 101° East 480 552 37,000  Level Minneapolis Center
Sat 03:28:31 PM 43.3919 -95.3164 101° East 472 543 37,000  Level Minneapolis Center
Sat 03:29:33 PM 43.3681 -95.1419 101° East 468 539 37,000  Level Minneapolis Center
Sat 03:30:34 PM 43.3364 -94.9278 101° East 478 550 37,000  Level Minneapolis Center
Sat 03:31:36 PM 43.3108 -94.7478 101° East 481 554 37,000  Level Minneapolis Center
Sat 03:32:37 PM 43.2842 -94.5647 101° East 492 566 37,000  Level Minneapolis Center
Sat 03:33:39 PM 43.2558 -94.3822 102° East 492 566 37,000  Level Minneapolis Center
Sat 03:34:41 PM 43.2258 -94.1772 101° East 498 573 37,000  Level Minneapolis Center
Sat 03:35:54 PM 43.1917 -93.9583 102° East 497 572 37,000  Level Minneapolis Center
Sat 03:36:56 PM 43.1642 -93.7736 101° East 497 572 37,000  Level Minneapolis Center
Sat 03:37:57 PM 43.1356 -93.5894 102° East 499 574 37,000  Level Minneapolis Center
Sat 03:38:59 PM 43.1064 -93.4064 102° East 499 574 37,000  Level Minneapolis Center
Sat 03:40:00 PM 43.0853 -93.2183 99° East 502 578 37,000  Level Minneapolis Center
Sat 03:41:02 PM 43.0744 -93.0292 94° East 504 580 37,000  Level Minneapolis Center
Sat 03:42:03 PM 43.0594 -92.8028 95° East 503 579 37,000  Level Minneapolis Center
Sat 03:43:05 PM 43.0461 -92.6156 96° East 502 578 37,000  Level Minneapolis Center
Sat 03:44:06 PM 43.0325 -92.4278 96° East 500 575 37,000  Level Minneapolis Center
Sat 03:45:08 PM 43.0189 -92.2383 96° East 502 578 37,000  Level Minneapolis Center
Sat 03:46:09 PM 43.0044 -92.0489 96° East 504 580 37,000 -537 Level Minneapolis Center
Sat 03:47:11 PM 42.9908 -91.8564 95° East 507 583 35,900 -1,707 Descending Minneapolis Center
Sat 03:48:12 PM 42.9800 -91.7014 95° East 509 586 33,500 -2,178 Descending Minneapolis Center
Sat 03:49:26 PM 42.9592 -91.4639 97° East 515 593 31,000 -1,111 Descending Minneapolis Center
Sat 03:50:27 PM 42.9219 -91.2347 102° East 517 595 31,000  Level Chicago Center
Sat 03:51:29 PM 42.8844 -91.0072 103° East 515 593 31,000 -390 Level Chicago Center
Sat 03:52:30 PM 42.8542 -90.8161 102° East 518 596 30,200 -927 Descending Chicago Center
Sat 03:53:32 PM 42.8219 -90.6267 103° East 516 594 29,100 -1,113 Descending Chicago Center
Sat 03:54:34 PM 42.7906 -90.4414 103° East 506 582 27,900 -1,171 Descending Chicago Center
Sat 03:55:35 PM 42.7594 -90.2600 103° East 498 573 26,700 -1,171 Descending Chicago Center
Sat 03:56:37 PM 42.7300 -90.0808 103° East 488 562 25,500 -1,548 Descending Chicago Center
Sat 03:57:39 PM 42.6950 -89.8806 103° East 486 559 23,500 -1,935 Descending Chicago Center
Sat 03:58:41 PM 42.6633 -89.7072 104° East 476 548 21,500 -2,146 Descending Chicago Center
Sat 03:59:42 PM 42.6322 -89.5239 103° East 432 497 19,100 -1,872 Descending Chicago Center
Sat 04:00:46 PM 42.6056 -89.3711 103° East 419 482 17,600 -1,429 Descending Chicago Center
Sat 04:01:48 PM 42.5783 -89.2231 104° East 407 468 16,100 -1,463 Descending Chicago Center
Sat 04:02:49 PM 42.5500 -89.0783 105° East 400 460 14,600 -1,220 Descending Chicago Center
Sat 04:03:51 PM 42.5081 -88.9433 113° Southeast 391 450 13,600 -1,210 Descending Chicago Center
Sat 04:04:53 PM 42.4617 -88.7856 112° Southeast 387 445 12,100 -1,210 Descending Chicago Center
Sat 04:05:55 PM 42.4219 -88.6539 112° Southeast 380 437 11,100 -976 Descending Chicago Center
Sat 04:06:56 PM 42.3803 -88.5214 113° Southeast 382 440 10,100 -585 Descending Chicago Center
Sat 04:07:58 PM 42.3411 -88.3897 112° Southeast 380 437 9,900 -48 Descending Chicago Center
Sat 04:09:00 PM 42.2714 -88.2736 129° Southeast 373 429 10,000 48 Climbing Chicago Center
Sat 04:10:02 PM 42.2069 -88.1669 129° Southeast 370 426 10,000 -49 Level Chicago Center
Sat 04:11:03 PM 42.1219 -88.0958 148° Southeast 363 418 9,900 -244 Descending Chicago Center
Sat 04:12:05 PM 42.0500 -88.0000 135° Southeast 303 349 9,500 -885 Descending Chicago TRACON
Sat 04:13:05 PM 41.9833 -87.9333 143° Southeast 339 390 8,100 -1,263 Descending Chicago TRACON
Sat 04:13:59 PM 41.9333 -87.8667 135° Southeast 322 371 7,100 -579 Descending Chicago TRACON
Sat 04:14:59 PM 41.8833 -87.7833 129° Southeast 294 338 7,000 -90 Descending Chicago TRACON
Sat 04:16:12 PM 41.8842 -87.6553 89° East 282 325 6,900 -44 Descending Chicago Center
Sat 04:17:14 PM 41.8833 -87.5547 91° East 272 313 6,900 -98 Level Chicago Center
Sat 04:18:15 PM 41.8831 -87.4608 90° East 257 296 6,700 -634 Descending Chicago Center
Sat 04:19:17 PM 41.8819 -87.3742 91° East 237 273 5,600 -823 Descending Chicago Center
Sat 04:20:19 PM 41.8844 -87.2958 88° East 214 246 5,000 -339 Descending Chicago Center
Sat 04:21:21 PM 41.9411 -87.3164 345° North 191 220 4,900 -49 Descending Chicago Center
Sat 04:22:22 PM 41.9603 -87.3778 293° West 184 212 4,900  Level Chicago Center
Sat 04:23:24 PM 41.9694 -87.4428 281° West 179 206 4,900  Level Chicago Center
Sat 04:24:26 PM 41.9692 -87.5106 270° West 182 209 4,900  Level Chicago Center
Sat 04:25:28 PM 41.9697 -87.5761 271° West 180 207 4,900  Level Chicago Center

Login

Don't have an account? Register now (free) for customized features, flight alerts, and more!